Time;durP1;ratioP1;P1;durP2;ratioP2;P2;SDS_P1;SDS_P2;PMS_P1;PMS_P2;Temp;Humidity;BMP_temperature;BMP_pressure;BME280_temperature;BME280_humidity;BME280_pressure;Samples;Min_cycle;Max_cycle;Signal;HPM_P1;HPM_P2
2022/06/24 00:02:11;;;;;;;7.70;2.70;;;;;;;;;;6268368;22;20437;-85
2022/06/24 00:04:38;;;;;;;6.53;2.53;;;;;;;;;;6273737;22;20039;-83
2022/06/24 00:07:24;;;;;;;4.05;2.47;;;;;;;;;;6270064;22;20016;-88
2022/06/24 00:09:53;;;;;;;3.10;2.53;;;;;;;;;;6275552;22;20051;-87
2022/06/24 00:15:20;;;;;;;9.68;2.97;;;;;;;;;;6275915;22;20173;-86
2022/06/24 00:17:46;;;;;;;4.88;3.17;;;;;;;;;;6171554;22;20459;-86
2022/06/24 00:20:17;;;;;;;4.65;2.90;;;;;;;;;;6225157;22;20763;-88
2022/06/24 00:22:47;;;;;;;3.58;2.90;;;;;;;;;;6276517;22;20446;-84
2022/06/24 00:25:14;;;;;;;4.35;3.00;;;;;;;;;;6220763;22;20062;-86
2022/06/24 00:28:00;;;;;;;5.20;3.50;;;;;;;;;;6249005;22;20020;-84
2022/06/24 00:30:39;;;;;;;4.47;3.33;;;;;;;;;;6279108;22;20594;-87
2022/06/24 00:33:13;;;;;;;5.93;3.10;;;;;;;;;;6252141;22;20019;-84
2022/06/24 00:35:40;;;;;;;3.00;2.70;;;;;;;;;;6274419;22;20087;-84
2022/06/24 00:38:26;;;;;;;5.38;3.15;;;;;;;;;;6275312;22;20015;-83
2022/06/24 00:40:57;;;;;;;5.07;2.95;;;;;;;;;;6273305;22;20078;-83
2022/06/24 00:43:35;;;;;;;3.22;2.70;;;;;;;;;;6248005;22;20103;-85
2022/06/24 00:46:07;;;;;;;4.45;2.83;;;;;;;;;;6226740;22;20020;-84
2022/06/24 00:48:35;;;;;;;9.10;3.35;;;;;;;;;;6275084;22;20020;-85
2022/06/24 00:51:01;;;;;;;4.38;3.60;;;;;;;;;;6276956;22;20456;-85
2022/06/24 00:53:27;;;;;;;4.78;3.00;;;;;;;;;;6274791;22;20406;-82
2022/06/24 00:55:54;;;;;;;4.00;2.85;;;;;;;;;;6275656;22;20054;-82
2022/06/24 00:58:20;;;;;;;6.03;3.17;;;;;;;;;;6223464;22;20019;-82
2022/06/24 01:00:47;;;;;;;6.40;3.22;;;;;;;;;;6252991;22;20352;-83
2022/06/24 01:03:33;;;;;;;7.03;2.60;;;;;;;;;;6277323;22;20020;-87
2022/06/24 01:06:00;;;;;;;6.88;2.97;;;;;;;;;;6252819;22;20051;-86
2022/06/24 01:08:26;;;;;;;5.38;3.30;;;;;;;;;;6251441;22;20016;-87
2022/06/24 01:10:55;;;;;;;5.25;3.20;;;;;;;;;;6279352;22;20076;-90
2022/06/24 01:13:23;;;;;;;4.88;3.45;;;;;;;;;;6279888;22;20043;-86
2022/06/24 01:16:23;;;;;;;6.18;3.65;;;;;;;;;;6258624;22;20023;-88
2022/06/24 01:18:59;;;;;;;5.60;3.75;;;;;;;;;;6209497;22;20031;-90
2022/06/24 01:21:37;;;;;;;12.27;3.53;;;;;;;;;;6284670;22;20051;-86
2022/06/24 01:24:18;;;;;;;7.65;3.70;;;;;;;;;;6259897;22;20027;-87
2022/06/24 01:35:59;;;;;;;6.75;3.58;;;;;;;;;;6275722;22;20083;-83
2022/06/24 01:41:34;;;;;;;10.48;3.75;;;;;;;;;;6251814;22;20016;-84
2022/06/24 01:51:10;;;;;;;6.82;3.47;;;21.00;99.90;;;;;;6273411;22;20347;-82
2022/06/24 01:53:37;;;;;;;5.70;3.38;;;;;;;;;;6274887;22;20043;-81
2022/06/24 01:56:03;;;;;;;5.15;3.30;;;;;;;;;;6274840;22;20110;-81
2022/06/24 02:01:52;;;;;;;7.57;3.70;;;;;;;;;;6274620;22;20057;-82
2022/06/24 02:07:13;;;;;;;6.38;3.47;;;;;;;;;;6276432;22;20026;-84
2022/06/24 02:15:09;;;;;;;5.30;3.42;;;;;;;;;;6246289;22;20030;-82
2022/06/24 02:17:35;;;;;;;4.03;3.60;;;;;;;;;;6192979;22;20024;-88
2022/06/24 02:22:40;;;;;;;6.43;3.80;;;;;;;;;;6258802;22;20378;-82
2022/06/24 02:28:34;;;;;;;6.85;4.05;;;;;;;;;;6241620;23;20669;-82
2022/06/24 02:38:05;;;;;;;6.22;4.10;;;;;;;;;;6120956;23;20029;-81
2022/06/24 02:43:34;;;;;;;6.45;3.92;;;;;;;;;;6032020;23;20110;-86
2022/06/24 02:49:22;;;;;;;9.55;4.25;;;;;;;;;;6056124;23;20427;-82
2022/06/24 02:51:48;;;;;;;5.97;4.65;;;;;;;;;;6085749;23;20023;-82
2022/06/24 03:01:39;;;;;;;7.13;4.47;;;;;;;;;;6084021;23;20432;-82
2022/06/24 03:04:23;;;;;;;9.38;4.53;;;;;;;;;;6089885;23;20022;-84
2022/06/24 03:13:51;;;;;;;9.48;4.70;;;;;;;;;;6188182;22;20120;-86
2022/06/24 03:19:40;;;;;;;8.57;4.68;;;;;;;;;;6279469;22;20073;-90
2022/06/24 03:22:06;;;;;;;8.32;4.72;;;;;;;;;;6253465;22;20020;-88
2022/06/24 03:24:32;;;;;;;7.57;5.05;;;;;;;;;;6278718;22;20015;-88
2022/06/24 03:27:00;;;;;;;6.78;4.55;;;;;;;;;;6254914;22;20015;-89
2022/06/24 03:29:27;;;;;;;6.85;4.88;;;;;;;;;;6255239;22;20016;-87
2022/06/24 03:31:56;;;;;;;9.02;4.53;;;;;;;;;;6283253;22;20023;-89
2022/06/24 03:38:04;;;;;;;8.60;4.75;;;;;;;;;;6273404;22;20094;-84
2022/06/24 03:40:30;;;;;;;7.47;4.53;;;;;;;;;;6248364;22;20015;-86
2022/06/24 03:42:56;;;;;;;9.00;4.60;;;;;;;;;;6272385;22;20023;-87
2022/06/24 03:45:31;;;;;;;8.77;4.63;;;;;;;;;;6269997;22;20015;-82
2022/06/24 03:47:57;;;;;;;7.20;4.43;;;;;;;;;;6243308;22;20023;-83
2022/06/24 03:50:26;;;;;;;7.18;3.97;;;;;;;;;;6244002;22;20764;-85
2022/06/24 03:52:52;;;;;;;13.63;4.68;;;;;;;;;;6272542;22;20031;-84
2022/06/24 03:55:19;;;;;;;7.75;4.47;;;;;;;;;;6272247;22;20050;-85
2022/06/24 03:57:45;;;;;;;8.73;4.55;;;;;;;;;;6244217;22;20460;-82
2022/06/24 04:00:12;;;;;;;6.80;4.40;;;;;;;;;;6268195;22;20015;-82
2022/06/24 04:02:38;;;;;;;9.93;4.63;;;;;;;;;;6269387;22;20019;-83
2022/06/24 04:05:04;;;;;;;6.30;4.40;;;;;;;;;;6269173;22;20039;-83
2022/06/24 04:07:30;;;;;;;4.22;3.83;;;;;;;;;;6276083;22;20016;-83
2022/06/24 04:09:56;;;;;;;5.75;4.20;;;;;;;;;;6242669;22;20086;-87
2022/06/24 04:12:23;;;;;;;7.22;4.10;;;;;;;;;;6276919;22;20160;-84
2022/06/24 04:17:33;;;;;;;6.68;4.70;;;;;;;;;;6271615;22;20024;-84
2022/06/24 04:20:00;;;;;;;6.03;4.15;;;;;;;;;;6244141;22;20081;-84
2022/06/24 04:22:26;;;;;;;6.40;4.18;;;;;;;;;;6192864;22;20348;-87
2022/06/24 04:24:52;;;;;;;11.35;4.65;;;;;;;;;;6274596;22;20410;-83
2022/06/24 04:27:18;;;;;;;5.75;4.47;;;;;;;;;;6268030;22;20343;-83
2022/06/24 04:29:44;;;;;;;8.00;4.68;;;;;;;;;;6241322;22;20051;-84
2022/06/24 04:32:10;;;;;;;11.25;4.38;;;;;;;;;;6269137;22;20032;-83
2022/06/24 04:34:38;;;;;;;8.30;4.30;;;;;;;;;;6273200;22;20430;-84
2022/06/24 04:37:04;;;;;;;7.68;4.30;;;;;;;;;;6268186;22;20282;-89
2022/06/24 04:39:30;;;;;;;5.93;4.30;;;;;;;;;;6251133;22;20020;-83
2022/06/24 04:41:56;;;;;;;10.65;4.40;;;;;;;;;;6274545;22;20099;-83
2022/06/24 04:44:22;;;;;;;7.72;4.70;;;;;;;;;;6247815;22;20019;-85
2022/06/24 04:46:48;;;;;;;9.02;4.70;;;;;;;;;;6272003;22;20433;-85
2022/06/24 04:49:14;;;;;;;8.02;3.65;;;;;;;;;;6243148;22;20101;-88
2022/06/24 04:51:40;;;;;;;6.47;4.20;;;;;;;;;;6243477;22;20030;-84
2022/06/24 04:58:06;;;;;;;7.43;4.75;;;;;;;;;;6275268;22;20357;-85
2022/06/24 05:00:34;;;;;;;7.10;3.97;;;;;;;;;;6240068;22;20020;-84
2022/06/24 05:03:00;;;;;;;5.45;3.70;;;;;;;;;;6274265;22;20589;-85
2022/06/24 05:05:26;;;;;;;12.60;4.55;;;;;;;;;;6279604;22;20039;-89
2022/06/24 05:07:52;;;;;;;10.15;4.50;;;;;;;;;;6203618;22;20023;-85
2022/06/24 05:10:18;;;;;;;5.30;3.70;;;;;;;;;;6249399;22;20019;-83
2022/06/24 05:15:50;;;;;;;9.48;4.00;;;;;;;;;;6255407;22;20095;-82
2022/06/24 05:18:17;;;;;;;4.82;3.97;;;;;;;;;;6260412;22;20024;-85
2022/06/24 05:20:43;;;;;;;11.93;4.43;;;;;;;;;;6262497;22;20034;-86
2022/06/24 05:23:09;;;;;;;7.30;3.88;;;;;;;;;;6281796;22;20019;-89
2022/06/24 05:25:35;;;;;;;6.88;4.35;;;;;;;;;;6282365;22;20091;-84
2022/06/24 05:28:01;;;;;;;6.88;4.47;;;;;;;;;;6280985;22;20027;-88
2022/06/24 05:30:27;;;;;;;5.30;3.95;;;;;;;;;;6256944;22;20016;-85
2022/06/24 05:35:35;;;;;;;13.73;4.20;;;;;;;;;;6244583;22;20039;-85
2022/06/24 05:38:30;;;;;;;6.60;4.22;;;;;;;;;;6254393;23;20063;-85
2022/06/24 05:40:56;;;;;;;8.80;4.15;;;;;;;;;;6229396;23;20016;-83
2022/06/24 05:43:22;;;;;;;4.43;3.83;;;;;;;;;;6251684;23;20023;-87
2022/06/24 05:45:49;;;;;;;8.38;4.05;;;;;;;;;;6230381;23;20345;-81
2022/06/24 05:48:27;;;;;;;9.23;4.03;;;;;;;;;;6251652;23;20583;-80
2022/06/24 05:50:53;;;;;;;7.68;4.03;;;;;;;;;;6253722;23;20012;-80
2022/06/24 05:56:06;;;;;;;7.97;4.38;;;;;;;;;;6249019;23;20121;-84
2022/06/24 05:58:33;;;;;;;10.57;4.15;;;;;;;;;;6218435;23;20047;-80
2022/06/24 06:01:14;;;;;;;9.52;4.18;;;;;;;;;;6248088;23;20051;-83
2022/06/24 06:06:16;;;;;;;6.00;4.40;;;;;;;;;;6281869;22;20050;-84
2022/06/24 06:08:57;;;;;;;8.05;4.43;;;;;;;;;;6228354;22;20098;-87
2022/06/24 06:11:26;;;;;;;13.77;4.78;;;;;;;;;;6204547;22;20023;-82
2022/06/24 06:13:53;;;;;;;7.18;5.40;;;;;;;;;;6227553;22;20411;-83
2022/06/24 06:16:29;;;;;;;8.82;4.55;;;;;;;;;;6252485;22;20015;-84
2022/06/24 06:18:58;;;;;;;7.30;4.40;;;;;;;;;;6278762;22;20284;-84
2022/06/24 06:21:24;;;;;;;10.30;5.13;;;;;;;;;;6272499;22;20024;-84
2022/06/24 06:23:51;;;;;;;11.30;5.25;;;;;;;;;;6269305;22;20023;-84
2022/06/24 06:26:17;;;;;;;6.00;4.95;;;;;;;;;;6243740;22;20350;-83
2022/06/24 06:28:46;;;;;;;8.93;5.03;;;;;;;;;;6270676;22;20162;-82
2022/06/24 06:31:12;;;;;;;21.65;7.65;;;;;;;;;;6270890;22;20069;-85
2022/06/24 06:33:38;;;;;;;10.35;7.80;;;;;;;;;;6273314;22;20016;-86
2022/06/24 06:36:05;;;;;;;23.75;10.30;;;;;;;;;;6272859;22;20054;-88
2022/06/24 06:38:32;;;;;;;16.60;9.50;;;;;;;;;;6271387;22;20170;-84
2022/06/24 06:40:58;;;;;;;16.77;10.80;;;;;;;;;;6271493;22;20012;-85
2022/06/24 06:43:25;;;;;;;14.63;11.55;;;;;;;;;;6273694;22;20019;-83
2022/06/24 06:45:52;;;;;;;15.60;12.98;;;;;;;;;;6269368;22;20066;-83
2022/06/24 06:48:24;;;;;;;20.98;14.07;;;;;;;;;;6244044;22;20031;-84
2022/06/24 06:50:56;;;;;;;16.65;14.50;;;;;;;;;;6269692;22;20015;-83
2022/06/24 06:53:23;;;;;;;19.92;15.20;;;;;;;;;;6271021;22;20020;-83
2022/06/24 06:55:49;;;;;;;22.95;16.02;;;;;;;;;;6270146;22;20016;-86
2022/06/24 06:58:15;;;;;;;26.65;16.83;;;;;;;;;;6270853;22;20523;-81
2022/06/24 07:00:41;;;;;;;23.65;15.85;;;;;;;;;;6269070;22;20012;-83
2022/06/24 07:03:08;;;;;;;22.63;16.63;;;;;;;;;;6248793;22;20020;-85
2022/06/24 07:05:34;;;;;;;26.23;18.65;;;;;;;;;;6270278;22;20030;-83
2022/06/24 07:08:00;;;;;;;24.58;18.55;;;;;;;;;;6268714;22;20030;-84
2022/06/24 07:13:13;;;;;;;;;;;;;;;;;;6271759;22;20410;-83
2022/06/24 07:15:39;;;;;;;25.60;19.92;;;;;;;;;;6267966;22;19915;-86
2022/06/24 07:18:11;;;;;;;26.65;20.27;;;;;;;;;;6242612;22;20016;-88
2022/06/24 07:20:37;;;;;;;24.20;19.75;;;;;;;;;;6218576;22;20693;-86
2022/06/24 07:23:04;;;;;;;24.27;21.23;;;;;;;;;;6242983;22;20019;-86
2022/06/24 07:25:33;;;;;;;24.23;21.50;;;;;;;;;;6244675;22;20020;-86
2022/06/24 07:27:59;;;;;;;25.42;21.33;;;;;;;;;;6242665;22;20395;-85
2022/06/24 07:30:25;;;;;;;24.80;21.15;;;;;;;;;;6218739;22;20419;-87
2022/06/24 07:32:51;;;;;;;24.85;20.83;;;;;;;;;;6227811;22;20027;-86
2022/06/24 07:35:23;;;;;;;24.95;20.35;;;;;;;;;;6275716;22;20387;-87
2022/06/24 07:37:50;;;;;;;25.08;19.95;;;;;;;;;;6266259;22;20038;-86
2022/06/24 07:40:16;;;;;;;24.00;18.67;;;;;;;;;;6247995;22;20015;-87
2022/06/24 07:42:45;;;;;;;24.95;18.55;;;;;;;;;;6248080;22;20456;-85
2022/06/24 07:45:13;;;;;;;20.95;18.20;;;;;;;;;;6270517;22;20030;-84
2022/06/24 07:47:40;;;;;;;23.45;18.88;;;;;;;;;;6272335;22;20023;-86
2022/06/24 07:50:07;;;;;;;20.75;18.20;;;;;;;;;;6219637;22;20102;-87
2022/06/24 07:52:33;;;;;;;19.27;16.17;;;;;;;;;;6242935;22;20038;-85
2022/06/24 07:58:14;;;;;;;23.88;14.90;;;;;;;;;;6266827;22;20098;-85
2022/06/24 08:01:08;;;;;;;;;;;;;;;;;;;;;
2022/06/24 08:03:43;;;;;;;22.10;11.68;;;;;;;;;;6246634;22;20066;-85
2022/06/24 08:06:25;;;;;;;20.30;9.80;;;;;;;;;;6243457;22;20106;-83
2022/06/24 08:08:51;;;;;;;18.35;8.57;;;;;;;;;;6271300;22;20020;-81
2022/06/24 08:11:18;;;;;;;17.58;8.23;;;;;;;;;;6243177;22;20023;-83
2022/06/24 08:13:44;;;;;;;19.13;8.32;;;;;;;;;;6243442;22;20011;-84
2022/06/24 08:16:11;;;;;;;17.38;7.63;;;;;;;;;;6245804;22;20023;-83
2022/06/24 08:18:37;;;;;;;13.07;6.82;;;;;;;;;;6273419;22;20711;-86
2022/06/24 08:21:04;;;;;;;18.83;7.00;;;;;;;;;;6276295;22;20058;-84
2022/06/24 08:23:34;;;;;;;11.23;6.10;;;;;;;;;;6247945;22;20047;-86
2022/06/24 08:26:00;;;;;;;16.60;7.03;;;;;;;;;;6196335;22;20024;-85
2022/06/24 08:28:48;;;;;;;11.60;4.38;;;;;;;;;;6220979;22;20020;-84
2022/06/24 08:31:14;;;;;;;10.18;4.35;;;;;;;;;;6244593;22;20020;-85
2022/06/24 08:33:40;;;;;;;9.00;4.30;;;;;;;;;;6241688;22;20416;-85
2022/06/24 08:36:06;;;;;;;7.78;3.47;;;;;;;;;;6272042;22;20020;-83
2022/06/24 08:38:32;;;;;;;6.60;3.03;;;;;;;;;;6241861;22;20351;-85
2022/06/24 08:41:03;;;;;;;9.52;3.70;;;;;;;;;;6218806;22;20378;-85
2022/06/24 08:43:33;;;;;;;9.70;3.75;;;;;;;;;;6243645;22;20024;-85
2022/06/24 08:46:00;;;;;;;9.43;3.50;;;;;;;;;;6241015;22;20022;-84
2022/06/24 08:48:32;;;;;;;9.82;3.50;;;;;;;;;;6242132;22;20062;-84
2022/06/24 08:51:00;;;;;;;12.75;4.13;;;;;;;;;;6193011;22;20069;-86
2022/06/24 08:53:31;;;;;;;7.63;3.17;;;;;;;;;;6216764;22;20019;-85
2022/06/24 08:55:58;;;;;;;8.38;3.30;;;;;;;;;;6217373;22;20062;-85
2022/06/24 08:58:24;;;;;;;7.25;3.35;;;;;;;;;;6245102;22;20027;-85
2022/06/24 09:00:50;;;;;;;9.35;3.70;;;;;;;;;;6218285;22;20022;-84
2022/06/24 09:03:16;;;;;;;7.68;3.55;;;;;;;;;;6223704;22;20467;-85
2022/06/24 09:06:01;;;;;;;7.10;2.88;;;;;;;;;;6279896;22;20020;-84
2022/06/24 09:08:34;;;;;;;9.48;3.28;;;;;;;;;;6253111;22;20131;-86
2022/06/24 09:11:07;;;;;;;7.47;3.20;;;;;;;;;;6224227;22;20030;-82
2022/06/24 09:13:45;;;;;;;4.87;2.97;;;;;;;;;;6272784;22;20061;-81
2022/06/24 09:16:12;;;;;;;4.90;2.85;;;;;;;;;;6274423;22;20577;-85
2022/06/24 09:18:38;;;;;;;7.32;2.92;;;;;;;;;;6270203;22;20023;-83
2022/06/24 09:21:04;;;;;;;5.20;2.88;;;;;;;;;;6271654;22;20026;-84
2022/06/24 09:23:31;;;;;;;4.15;3.22;;;;;;;;;;6241915;22;20024;-86
2022/06/24 09:26:02;;;;;;;6.00;3.25;;;;;;;;;;6274383;22;20019;-84
2022/06/24 09:28:30;;;;;;;5.75;3.30;;;;;;;;;;6246180;22;20012;-84
2022/06/24 09:31:02;;;;;;;7.47;3.20;;;;;;;;;;6270221;22;20047;-84
2022/06/24 09:33:28;;;;;;;7.78;2.70;;;;;;;;;;6246284;22;20024;-85
2022/06/24 09:36:01;;;;;;;5.22;3.20;;;;;;;;;;6246570;22;20438;-83
2022/06/24 09:38:28;;;;;;;4.07;2.97;;;;;;;;;;6273265;22;20480;-85
2022/06/24 09:41:01;;;;;;;7.18;3.20;;;;;;;;;;6192767;22;20020;-85
2022/06/24 09:43:31;;;;;;;4.03;3.10;;;;;;;;;;6271749;22;20020;-81
2022/06/24 09:45:57;;;;;;;6.32;3.70;;;;;;;;;;6243696;22;20016;-82
2022/06/24 09:48:41;;;;;;;7.38;3.60;;;;;;;;;;6219211;22;20533;-85
2022/06/24 09:51:20;;;;;;;7.00;3.42;;;;;;;;;;6246957;22;20023;-85
2022/06/24 09:53:46;;;;;;;8.88;3.95;;;;;;;;;;6271442;22;20464;-83
2022/06/24 09:56:13;;;;;;;5.20;3.78;;;;;;;;;;6248213;22;20169;-87
2022/06/24 09:58:41;;;;;;;7.70;3.63;;;;;;;;;;6272224;22;20348;-86
2022/06/24 10:01:07;;;;;;;6.82;3.70;;;;;;;;;;6272622;22;20028;-82
2022/06/24 10:03:34;;;;;;;6.10;3.72;;;;;;;;;;6275052;22;20016;-80
2022/06/24 10:06:02;;;;;;;7.70;3.70;;;;;;;;;;6276001;22;20016;-88
2022/06/24 10:08:30;;;;;;;4.85;3.83;;;;;;;;;;6276017;22;20016;-86
2022/06/24 10:10:59;;;;;;;8.32;4.20;;;;;;;;;;6277115;22;20049;-87
2022/06/24 10:13:25;;;;;;;6.03;4.20;;;;;;;;;;6252770;22;20024;-86
2022/06/24 10:15:52;;;;;;;9.45;4.05;;;;;;;;;;6278706;22;20032;-88
2022/06/24 10:18:26;;;;;;;5.97;3.55;;;;;;;;;;6280524;22;20019;-85
2022/06/24 10:20:56;;;;;;;5.22;3.72;;;;;;;;;;6227131;22;20089;-85
2022/06/24 10:23:37;;;;;;;6.13;4.00;;;;;;;;;;6228878;22;20019;-88
2022/06/24 10:26:11;;;;;;;6.78;3.70;;;;;;;;;;6226921;22;20027;-85
2022/06/24 10:28:56;;;;;;;9.35;4.47;;;;;;;;;;6280681;22;20035;-88
2022/06/24 10:31:22;;;;;;;8.15;4.25;;;;;;;;;;6227236;22;20028;-86
2022/06/24 10:33:57;;;;;;;7.35;3.80;;;;;;;;;;6251069;22;20025;-87
2022/06/24 10:36:31;;;;;;;8.55;4.30;;;;;;;;;;6278287;22;20020;-84
2022/06/24 10:39:06;;;;;;;5.47;4.00;;;;;;;;;;6275891;22;20371;-85
2022/06/24 10:41:45;;;;;;;5.65;3.55;;;;;;;;;;6276581;22;20020;-86
2022/06/24 10:44:23;;;;;;;5.20;4.00;;;;;;;;;;6274519;22;20019;-86
2022/06/24 10:47:08;;;;;;;5.93;4.05;;;;;;;;;;6284497;22;20015;-87
2022/06/24 10:50:03;;;;;;;6.78;3.95;;;;;;;;;;6233644;22;20031;-85
2022/06/24 10:52:39;;;;;;;4.95;3.35;;;;;;;;;;6283752;22;20019;-82
2022/06/24 10:55:21;;;;;;;18.10;4.55;;;;;;;;;;6284700;22;20015;-86
2022/06/24 10:58:26;;;;;;;8.52;4.65;;;;;;;;;;6253140;22;20050;-85
2022/06/24 11:00:53;;;;;;;6.35;5.05;;;;;;;;;;6131067;23;20022;-84
2022/06/24 11:03:27;;;;;;;43.60;7.38;;;;;;;;;;6121123;23;20101;-84
2022/06/24 11:05:53;;;;;;;;;;;;;;;;;;6172280;22;20015;-82
2022/06/24 11:08:20;;;;;;;17.40;8.65;;;;;;;;;;6270156;22;20280;-83
2022/06/24 11:10:49;;;;;;;61.05;10.18;;;;;;;;;;6268969;22;20072;-82
2022/06/24 11:13:16;;;;;;;20.80;10.35;;;;;;;;;;6270238;22;20019;-81
2022/06/24 11:15:51;;;;;;;17.73;11.48;;;;;;;;;;6274520;22;20023;-82
2022/06/24 11:18:18;;;;;;;11.32;8.25;;;;;;;;;;6269098;22;20054;-82
2022/06/24 11:20:47;;;;;;;22.48;11.77;;;;;;;;;;6268867;22;20074;-81
2022/06/24 11:23:14;;;;;;;22.75;11.50;;;;;;;;;;6269228;22;20059;-80
2022/06/24 11:25:45;;;;;;;19.38;10.27;;;;;;;;;;6269118;22;20698;-81
2022/06/24 11:28:23;;;;;;;17.65;9.90;;;;;;;;;;6268131;22;20019;-81
2022/06/24 11:30:50;;;;;;;14.32;9.77;;;;;;;;;;6271431;22;20019;-83
2022/06/24 11:33:16;;;;;;;23.90;11.63;;;;;;;;;;6269959;22;20098;-83
2022/06/24 11:35:43;;;;;;;16.05;10.35;;;;;;;;;;6272855;22;20019;-80
2022/06/24 11:38:09;;;;;;;19.60;10.10;;;;;;;;;;6271637;22;20012;-86
2022/06/24 11:40:42;;;;;;;17.10;10.57;;;;;;;;;;6278444;22;20442;-80
2022/06/24 11:43:15;;;;;;;16.02;11.25;;;;;;;;;;6247703;22;20030;-83
2022/06/24 11:45:46;;;;;;;17.48;9.85;;;;;;;;;;6246417;22;20015;-84
2022/06/24 11:48:13;;;;;;;14.65;7.65;;;;;;;;;;6273402;22;20022;-84
2022/06/24 11:50:40;;;;;;;8.50;6.80;;;;;;;;;;6267825;22;20125;-83
2022/06/24 11:53:07;;;;;;;7.63;6.55;;;;;;;;;;6270214;22;20080;-83
2022/06/24 11:55:37;;;;;;;13.10;7.07;;;;;;;;;;6269673;22;20432;-85
2022/06/24 11:58:07;;;;;;;12.35;6.10;;;;;;;;;;6270036;22;20103;-83
2022/06/24 12:00:38;;;;;;;7.63;6.55;;;;;;;;;;6271337;22;20082;-85
2022/06/24 12:03:08;;;;;;;9.02;6.78;;;;;;;;;;6269202;22;20023;-83
2022/06/24 12:05:34;;;;;;;8.95;7.00;;;;;;;;;;6267425;22;20055;-84
2022/06/24 12:08:01;;;;;;;5.53;4.70;;;;;;;;;;6267466;22;20015;-85
2022/06/24 12:10:28;;;;;;;14.68;6.72;;;;;;;;;;6267843;22;20080;-83
2022/06/24 12:13:12;;;;;;;10.73;4.30;;;;;;;;;;6267168;22;20027;-83
2022/06/24 12:15:47;;;;;;;10.65;4.50;;;;;;;;;;6213811;22;20077;-82
2022/06/24 12:18:14;;;;;;;11.10;5.35;;;;;;;;;;6269270;22;20020;-82
2022/06/24 12:20:40;;;;;;;8.65;4.72;;;;;;;;;;6266678;22;20016;-82
2022/06/24 12:23:16;;;;;;;8.45;4.63;;;;;;;;;;6269550;22;20077;-83
2022/06/24 12:25:43;;;;;;;6.43;5.13;;;;;;;;;;6268178;22;20015;-81
2022/06/24 12:28:28;;;;;;;12.10;5.68;;;;;;;;;;6267109;22;20015;-82
2022/06/24 12:31:12;;;;;;;12.57;4.95;;;;;;;;;;6265646;22;20054;-83
2022/06/24 12:33:45;;;;;;;4.88;4.05;;;;;;;;;;6240519;22;20019;-83
2022/06/24 12:36:18;;;;;;;12.85;6.55;;;;;;;;;;6268635;22;20020;-84
2022/06/24 12:38:53;;;;;;;12.40;5.97;;;;;;;;;;6266430;22;20118;-84
2022/06/24 12:41:21;;;;;;;11.32;6.50;;;;;;;;;;6267553;22;20024;-84
2022/06/24 12:43:53;;;;;;;9.38;6.03;;;;;;;;;;6239679;22;20019;-83
2022/06/24 12:46:20;;;;;;;12.10;6.32;;;;;;;;;;6240302;22;20140;-83
2022/06/24 12:51:34;;;;;;;7.55;5.28;;;;;;;;;;6268955;22;20023;-84
2022/06/24 12:54:00;;;;;;;8.30;5.03;;;;;;;;;;6221769;22;20020;-83
2022/06/24 12:56:26;;;;;;;11.05;5.20;;;;;;;;;;6245399;22;20024;-83
2022/06/24 12:58:53;;;;;;;8.05;5.25;;;;;;;;;;6273880;22;20922;-83
2022/06/24 13:01:19;;;;;;;12.32;6.30;;;;;;;;;;6272460;22;20052;-83
2022/06/24 13:04:11;;;;;;;9.02;6.15;;;;;;;;;;6276844;22;20046;-82
2022/06/24 13:06:44;;;;;;;5.43;4.82;;;;;;;;;;6212469;23;20082;-83
2022/06/24 13:09:10;;;;;;;9.13;5.15;;;;;;;;;;6186170;23;20032;-83
2022/06/24 13:11:46;;;;;;;10.48;4.50;;;;;;;;;;6213670;23;20074;-83
2022/06/24 13:14:13;;;;;;;6.40;4.70;;;;;;;;;;6183846;23;20063;-82
2022/06/24 13:16:39;;;;;;;7.15;4.03;;;;;;;;;;6234391;23;20020;-84
2022/06/24 13:19:05;;;;;;;7.22;4.00;;;;;;;;;;6210414;23;20369;-84
2022/06/24 13:21:31;;;;;;;8.55;4.35;;;;;;;;;;6207300;23;20066;-83
2022/06/24 13:23:57;;;;;;;8.90;4.13;;;;;;;;;;6237860;23;20020;-82
2022/06/24 13:26:23;;;;;;;8.85;4.65;;;;;;;;;;6238417;23;20023;-82
2022/06/24 13:28:49;;;;;;;12.10;4.70;;;;;;;;;;6210444;23;20298;-82
2022/06/24 13:31:15;;;;;;;9.05;4.93;;;;;;;;;;6238123;23;20020;-83
2022/06/24 13:33:41;;;;;;;7.40;4.75;;;;;;;;;;6186323;23;20020;-83
2022/06/24 13:36:07;;;;;;;9.23;4.68;;;;;;;;;;6160985;23;20031;-83
2022/06/24 13:38:33;;;;;;;8.10;4.47;;;;;;;;;;6236397;23;20035;-82
2022/06/24 13:41:11;;;;;;;5.78;4.20;;;;;;;;;;6214334;23;20051;-81
2022/06/24 13:43:38;;;;;;;6.50;3.85;;;;;;;;;;6235716;23;20022;-83
2022/06/24 13:46:04;;;;;;;8.65;4.60;;;;;;;;;;6212236;23;20000;-81
2022/06/24 13:48:30;;;;;;;12.75;5.25;;;;;;;;;;6184874;23;20024;-80
2022/06/24 13:50:56;;;;;;;7.13;4.20;;;;;;;;;;6238661;23;20019;-81
2022/06/24 13:53:22;;;;;;;10.23;4.40;;;;;;;;;;6239202;23;20336;-81
2022/06/24 13:55:48;;;;;;;10.63;4.88;;;;;;;;;;6236136;23;20208;-83
2022/06/24 13:58:14;;;;;;;6.75;4.65;;;;;;;;;;6235238;23;20027;-81
2022/06/24 14:01:00;;;;;;;5.97;3.83;;;;;;;;;;6190298;23;20075;-84
2022/06/24 14:03:26;;;;;;;7.75;3.42;;;;;;;;;;6187146;23;20024;-81
2022/06/24 14:05:56;;;;;;;5.68;3.00;;;;;;;;;;6232013;22;20023;-82
2022/06/24 14:08:22;;;;;;;6.65;3.80;;;;;;;;;;6243623;22;20030;-81
2022/06/24 14:10:48;;;;;;;10.90;4.15;;;;;;;;;;6248006;22;20329;-82
2022/06/24 14:13:14;;;;;;;6.50;3.70;;;;;;;;;;6269205;22;20035;-83
2022/06/24 14:15:40;;;;;;;9.68;3.28;;;;;;;;;;6269368;22;20056;-81
2022/06/24 14:18:12;;;;;;;5.93;2.88;;;;;;;;;;6240189;22;20090;-81
2022/06/24 14:20:38;;;;;;;6.72;3.20;;;;;;;;;;6243607;22;20015;-82
2022/06/24 14:25:52;;;;;;;7.93;3.60;;;;;;;;;;6272274;22;20035;-81
2022/06/24 14:28:18;;;;;;;8.40;3.38;;;;;;;;;;6269989;22;20452;-82
2022/06/24 14:30:44;;;;;;;8.35;4.28;;;;;;;;;;6269806;22;20028;-82
2022/06/24 14:33:10;;;;;;;4.95;3.20;;;;;;;;;;6243998;22;20069;-82
2022/06/24 14:35:36;;;;;;;8.88;3.53;;;;;;;;;;6268845;22;20022;-82
2022/06/24 14:40:47;;;;;;;8.52;3.85;;;;;;;;;;6267948;22;20098;-82
2022/06/24 14:43:13;;;;;;;5.03;3.00;;;;;;;;;;6269351;22;20530;-81
2022/06/24 14:45:40;;;;;;;5.63;3.00;;;;;;;;;;6270027;22;20016;-82
2022/06/24 14:48:06;;;;;;;5.63;3.50;;;;;;;;;;6244329;22;20019;-81
2022/06/24 14:50:33;;;;;;;4.15;2.60;;;;;;;;;;6270131;22;20039;-81
2022/06/24 14:53:00;;;;;;;5.78;3.45;;;;;;;;;;6267645;22;20012;-82
2022/06/24 14:55:29;;;;;;;5.28;3.08;;;;;;;;;;6243194;22;20015;-81
2022/06/24 14:57:55;;;;;;;8.23;2.95;;;;;;;;;;6269827;22;20082;-81
2022/06/24 15:00:23;;;;;;;5.22;3.63;;;;;;;;;;6269060;22;20099;-80
2022/06/24 15:02:49;;;;;;;5.47;3.50;;;;;;;;;;6267936;22;20030;-81
2022/06/24 15:05:15;;;;;;;6.60;3.67;;;;;;;;;;6252736;22;20027;-81
2022/06/24 15:07:42;;;;;;;6.30;3.30;;;;;;;;;;6236691;23;20016;-81
2022/06/24 15:10:08;;;;;;;7.45;4.65;;;;;;;;;;6236769;23;20048;-83
2022/06/24 15:12:34;;;;;;;6.57;4.30;;;;;;;;;;6211634;23;20073;-82
2022/06/24 15:15:00;;;;;;;5.95;5.15;;;;;;;;;;6233937;23;20032;-81
2022/06/24 15:17:26;;;;;;;7.35;5.50;;;;;;;;;;6240094;23;20012;-81
2022/06/24 15:19:52;;;;;;;8.73;5.18;;;;;;;;;;6238839;23;20352;-82
2022/06/24 15:22:19;;;;;;;8.20;5.45;;;;;;;;;;6209684;23;20020;-82
2022/06/24 15:24:50;;;;;;;8.15;5.75;;;;;;;;;;6234257;23;20028;-82
2022/06/24 15:27:16;;;;;;;7.05;5.90;;;;;;;;;;6187787;23;20020;-81
2022/06/24 15:29:42;;;;;;;8.80;6.68;;;;;;;;;;6235149;23;20026;-81
2022/06/24 15:32:09;;;;;;;10.90;7.28;;;;;;;;;;6235071;23;20020;-83
2022/06/24 15:34:35;;;;;;;10.75;8.30;;;;;;;;;;6235848;23;20031;-83
2022/06/24 15:37:01;;;;;;;10.95;8.23;;;;;;;;;;6211260;23;20016;-82
2022/06/24 15:39:27;;;;;;;10.35;8.15;;;;;;;;;;6239151;23;20035;-82
2022/06/24 15:41:54;;;;;;;9.77;7.97;;;;;;;;;;6238638;23;20024;-81
2022/06/24 15:44:20;;;;;;;10.73;7.45;;;;;;;;;;6238968;23;20023;-82
2022/06/24 15:46:46;;;;;;;10.10;8.13;;;;;;;;;;6209163;23;20024;-82
2022/06/24 15:49:21;;;;;;;10.20;8.30;;;;;;;;;;6209734;23;20048;-82
2022/06/24 15:51:48;;;;;;;9.40;8.30;;;;;;;;;;6209658;23;20031;-82
2022/06/24 15:54:14;;;;;;;8.77;7.88;;;;;;;;;;6235371;23;20118;-82
2022/06/24 15:56:40;;;;;;;9.60;8.70;;;;;;;;;;6210446;23;20028;-82
2022/06/24 15:59:07;;;;;;;9.52;8.48;;;;;;;;;;6234737;23;20346;-81
2022/06/24 16:01:33;;;;;;;8.95;7.90;;;;;;;;;;6208378;23;20030;-82
2022/06/24 16:04:00;;;;;;;11.40;7.90;;;;;;;;;;6206553;23;20024;-82
2022/06/24 16:06:26;;;;;;;9.48;8.65;;;;;;;;;;6184867;23;20028;-81
2022/06/24 16:08:52;;;;;;;10.50;9.40;;;;;;;;;;6236439;23;20036;-82
2022/06/24 16:11:18;;;;;;;11.15;9.73;;;;;;;;;;6235905;23;20020;-82
2022/06/24 16:13:44;;;;;;;11.02;10.00;;;;;;;;;;6207146;23;20564;-81
2022/06/24 16:16:10;;;;;;;11.45;10.30;;;;;;;;;;6236182;23;20329;-81
2022/06/24 16:18:36;;;;;;;10.50;9.50;;;;;;;;;;6236543;23;20024;-82
2022/06/24 16:21:02;;;;;;;11.75;10.55;;;;;;;;;;6235853;23;20019;-82
2022/06/24 16:23:28;;;;;;;11.23;10.02;;;;;;;;;;6236702;23;20404;-81
2022/06/24 16:28:40;;;;;;;13.38;10.48;;;;;;;;;;6211786;23;20028;-82
2022/06/24 16:31:07;;;;;;;11.73;10.07;;;;;;;;;;6240350;23;20342;-82
2022/06/24 16:33:33;;;;;;;11.45;9.55;;;;;;;;;;6213952;23;20054;-82
2022/06/24 16:36:00;;;;;;;10.27;9.05;;;;;;;;;;6220340;23;20016;-82
2022/06/24 16:38:26;;;;;;;10.90;9.32;;;;;;;;;;6245842;23;20027;-80
2022/06/24 16:40:53;;;;;;;9.95;8.93;;;;;;;;;;6247488;23;20027;-82